createdAt,value
2023-01-28T00:02:00.795Z,102217.47
2023-01-28T00:06:11.801Z,102223.19
2023-01-28T00:10:13.880Z,102218.53
2023-01-28T00:14:15.531Z,102212.53
2023-01-28T00:18:17.152Z,102221.38
2023-01-28T00:22:18.719Z,102218.97
2023-01-28T00:26:21.248Z,102216.28
2023-01-28T00:30:23.354Z,102220.59
2023-01-28T00:34:24.878Z,102234.03
2023-01-28T00:38:26.609Z,102229.16
2023-01-28T00:42:28.061Z,102224.25
2023-01-28T00:46:29.471Z,102222.09
2023-01-28T00:50:30.909Z,102228.13
2023-01-28T00:54:32.377Z,102228.72
2023-01-28T00:58:34.374Z,102230.38
2023-01-28T01:02:35.893Z,102242.19
2023-01-28T01:06:40.007Z,102247.16
2023-01-28T01:10:41.460Z,102252.53
2023-01-28T01:14:42.893Z,102245.00
2023-01-28T01:18:44.523Z,102248.91
2023-01-28T01:22:45.999Z,102240.88
2023-01-28T01:26:47.468Z,102241.28
2023-01-28T01:30:49.621Z,102233.19
2023-01-28T01:34:51.113Z,102238.56
2023-01-28T01:38:56.347Z,102230.38
2023-01-28T01:42:57.846Z,102239.22
2023-01-28T01:46:59.589Z,102251.94
2023-01-28T01:51:08.890Z,102252.84
2023-01-28T01:55:17.119Z,102260.66
2023-01-28T01:59:27.129Z,102260.44
2023-01-28T02:03:31.849Z,102256.31
2023-01-28T02:07:34.292Z,102257.69
2023-01-28T02:11:36.791Z,102262.56
2023-01-28T02:15:38.719Z,102269.66
2023-01-28T02:19:45.933Z,102262.75
2023-01-28T02:24:29.121Z,102262.56
2023-01-28T02:28:45.679Z,102260.91
2023-01-28T02:33:00.669Z,102256.47
2023-01-28T02:37:09.883Z,102259.94
2023-01-28T02:41:20.970Z,102258.13
2023-01-28T02:45:55.797Z,102266.16
2023-01-28T02:50:01.991Z,102258.75
2023-01-28T02:54:20.348Z,102257.34
2023-01-28T02:58:33.358Z,102260.84
2023-01-28T03:02:41.519Z,102265.09
2023-01-28T03:06:50.129Z,102272.63
2023-01-28T03:11:13.893Z,102265.00
2023-01-28T03:15:38.891Z,102263.81
2023-01-28T03:19:59.280Z,102277.06
2023-01-28T03:24:21.762Z,102266.56
2023-01-28T03:28:43.067Z,102256.53
2023-01-28T03:33:03.257Z,102269.78
2023-01-28T03:37:04.844Z,102266.41
2023-01-28T03:41:06.381Z,102261.34
2023-01-28T03:45:08.632Z,102255.59
2023-01-28T03:49:10.101Z,102261.16
2023-01-28T03:53:16.976Z,102257.59
2023-01-28T03:57:22.124Z,102258.81
2023-01-28T04:01:24.156Z,102257.28
2023-01-28T04:05:25.875Z,102253.34
2023-01-28T04:09:27.535Z,102258.97
2023-01-28T04:13:28.993Z,102252.72
2023-01-28T04:17:30.453Z,102252.56
2023-01-28T04:21:31.990Z,102259.19
2023-01-28T04:25:34.395Z,102261.75
2023-01-28T04:29:35.880Z,102268.72
2023-01-28T04:33:37.344Z,102262.88
2023-01-28T04:37:41.238Z,102273.66
2023-01-28T04:41:42.750Z,102270.91
2023-01-28T04:45:44.188Z,102275.81
2023-01-28T04:49:45.625Z,102265.34
2023-01-28T04:53:47.065Z,102272.00
2023-01-28T04:57:48.789Z,102267.22
2023-01-28T05:01:50.304Z,102267.56
2023-01-28T05:05:51.799Z,102272.97
2023-01-28T05:09:53.214Z,102277.91
2023-01-28T05:13:55.335Z,102272.25
2023-01-28T05:17:57.121Z,102283.59
2023-01-28T05:21:58.593Z,102287.72
2023-01-28T05:26:00.120Z,102297.81
2023-01-28T05:30:01.653Z,102296.03
2023-01-28T05:34:03.120Z,102288.09
2023-01-28T05:38:05.425Z,102288.78
2023-01-28T05:42:06.824Z,102290.38
2023-01-28T05:46:08.291Z,102287.16
2023-01-28T05:50:13.287Z,102282.59
2023-01-28T05:54:14.894Z,102290.69
2023-01-28T05:58:16.855Z,102292.53
2023-01-28T06:02:18.344Z,102293.69
2023-01-28T06:06:19.791Z,102292.13
2023-01-28T06:10:21.312Z,102296.47
2023-01-28T06:14:22.732Z,102294.38
2023-01-28T06:18:24.192Z,102296.31
2023-01-28T06:22:25.722Z,102293.50
2023-01-28T06:26:27.186Z,102296.88
2023-01-28T06:30:28.628Z,102299.97
2023-01-28T06:34:30.067Z,102308.13
2023-01-28T06:38:31.472Z,102301.34
2023-01-28T06:42:32.900Z,102300.88
2023-01-28T06:46:34.490Z,102315.03
2023-01-28T06:50:35.990Z,102305.06
2023-01-28T06:54:37.465Z,102306.41
2023-01-28T06:58:38.893Z,102318.47
2023-01-28T07:02:40.396Z,102305.63
2023-01-28T07:06:42.042Z,102309.75
2023-01-28T07:10:44.193Z,102322.38
2023-01-28T07:14:45.662Z,102314.84
2023-01-28T07:18:47.441Z,102314.59
2023-01-28T07:22:49.028Z,102316.56
2023-01-28T07:26:50.424Z,102319.78
2023-01-28T07:30:53.572Z,102324.44
2023-01-28T07:34:55.239Z,102317.34
2023-01-28T07:38:56.700Z,102317.13
2023-01-28T07:42:58.261Z,102315.69
2023-01-28T07:46:59.767Z,102319.66
2023-01-28T07:51:01.656Z,102316.94
2023-01-28T07:55:03.166Z,102324.97
2023-01-28T07:59:04.655Z,102317.75
2023-01-28T08:03:16.867Z,102323.03
2023-01-28T08:07:18.471Z,102326.44
2023-01-28T08:11:20.788Z,102328.50
2023-01-28T08:15:23.392Z,102334.50
2023-01-28T08:19:24.934Z,102332.34
2023-01-28T08:23:27.516Z,102338.06
2023-01-28T08:27:29.059Z,102349.53
2023-01-28T08:31:31.178Z,102344.66
2023-01-28T08:35:33.211Z,102353.25
2023-01-28T08:39:34.859Z,102355.59
2023-01-28T08:43:36.369Z,102365.38
2023-01-28T08:47:46.997Z,102362.75
2023-01-28T08:51:49.075Z,102366.94
2023-01-28T08:55:50.521Z,102373.00
2023-01-28T08:59:51.968Z,102366.94
2023-01-28T09:03:53.426Z,102381.41
2023-01-28T09:07:54.885Z,102380.19
2023-01-28T09:11:56.407Z,102381.03
2023-01-28T09:15:57.923Z,102390.03
2023-01-28T09:19:59.355Z,102391.16
2023-01-28T09:24:00.861Z,102395.28
2023-01-28T09:28:02.336Z,102409.28
2023-01-28T09:32:04.472Z,102415.00
2023-01-28T09:36:08.661Z,102403.75
2023-01-28T09:40:26.615Z,102410.16
2023-01-28T09:44:45.610Z,102410.69
2023-01-28T09:48:51.243Z,102405.09
2023-01-28T09:52:57.755Z,102409.81
2023-01-28T09:57:11.883Z,102413.25
2023-01-28T10:01:35.255Z,102407.69
2023-01-28T10:05:52.941Z,102419.56
2023-01-28T10:10:08.807Z,102415.09
2023-01-28T10:14:25.657Z,102411.19
2023-01-28T10:18:46.093Z,102409.22
2023-01-28T10:23:01.075Z,102413.53
2023-01-28T10:27:09.779Z,102405.94
2023-01-28T10:31:14.621Z,102402.59
2023-01-28T10:35:16.174Z,102395.66
2023-01-28T10:39:22.460Z,102393.44
2023-01-28T10:43:25.425Z,102388.78
2023-01-28T10:47:44.873Z,102402.63
2023-01-28T10:51:46.458Z,102390.03
2023-01-28T10:55:56.019Z,102389.38
2023-01-28T10:59:57.557Z,102397.03
2023-01-28T11:03:59.119Z,102393.22
2023-01-28T11:08:14.722Z,102393.66
2023-01-28T11:12:26.955Z,102394.94
2023-01-28T11:16:28.676Z,102384.88
2023-01-28T11:20:37.024Z,102389.59
2023-01-28T11:24:38.498Z,102381.16
2023-01-28T11:28:43.645Z,102386.94
2023-01-28T11:32:45.179Z,102378.56
2023-01-28T11:36:54.143Z,102377.38
2023-01-28T11:40:58.106Z,102374.03
2023-01-28T11:44:59.667Z,102376.44
2023-01-28T11:49:10.325Z,102365.06
2023-01-28T11:53:40.369Z,102356.56
2023-01-28T11:58:17.317Z,102359.50
2023-01-28T12:02:32.590Z,102345.69
2023-01-28T12:06:47.411Z,102356.34
2023-01-28T12:10:58.934Z,102359.09
2023-01-28T12:15:51.972Z,102347.69
2023-01-28T12:20:21.186Z,102355.06
2023-01-28T12:24:31.851Z,102342.25
2023-01-28T12:28:51.576Z,102347.72
2023-01-28T12:33:03.538Z,102344.09
2023-01-28T12:37:31.659Z,102348.19
2023-01-28T12:41:39.885Z,102340.78
2023-01-28T12:45:47.458Z,102348.53
2023-01-28T12:49:55.608Z,102335.19
2023-01-28T12:54:12.776Z,102331.53
2023-01-28T12:58:22.833Z,102341.91
2023-01-28T13:02:34.414Z,102330.06
2023-01-28T13:06:44.575Z,102332.59
2023-01-28T13:10:47.575Z,102322.75
2023-01-28T13:14:52.622Z,102326.06
2023-01-28T13:19:19.468Z,102318.00
2023-01-28T13:23:36.557Z,102304.06
2023-01-28T13:27:38.100Z,102299.66
2023-01-28T13:31:45.084Z,102289.13
2023-01-28T13:35:54.791Z,102299.06
2023-01-28T13:40:03.137Z,102297.50
2023-01-28T13:44:04.963Z,102298.34
2023-01-28T13:48:21.670Z,102289.47
2023-01-28T13:52:27.532Z,102287.31
2023-01-28T13:56:37.907Z,102291.41
2023-01-28T14:01:00.564Z,102300.53
2023-01-28T14:05:28.259Z,102291.97
2023-01-28T14:09:56.840Z,102271.69
2023-01-28T14:14:16.532Z,102281.03
2023-01-28T14:18:27.698Z,102285.03
2023-01-28T14:22:29.186Z,102281.34
2023-01-28T14:27:05.228Z,102273.59
2023-01-28T14:31:16.149Z,102256.63
2023-01-28T14:35:37.367Z,102255.63
2023-01-28T14:39:50.494Z,102256.28
2023-01-28T14:43:55.330Z,102278.13
2023-01-28T14:48:08.780Z,102293.81
2023-01-28T14:52:29.086Z,102291.59
2023-01-28T14:56:43.048Z,102294.69
2023-01-28T15:00:54.586Z,102293.69
2023-01-28T15:05:08.181Z,102291.28
2023-01-28T15:09:13.484Z,102293.69
2023-01-28T15:13:30.394Z,102290.78
2023-01-28T15:17:31.950Z,102301.34
2023-01-28T15:21:35.664Z,102307.09
2023-01-28T15:25:37.140Z,102292.91
2023-01-28T15:29:38.612Z,102297.69
2023-01-28T15:33:40.080Z,102298.88
2023-01-28T15:37:41.570Z,102284.81
2023-01-28T15:41:47.704Z,102300.22
2023-01-28T15:45:52.009Z,102302.28
2023-01-28T15:49:56.870Z,102293.50
2023-01-28T15:54:03.969Z,102302.88
2023-01-28T15:58:30.518Z,102306.50
2023-01-28T16:02:33.006Z,102314.31
2023-01-28T16:06:38.591Z,102311.47
2023-01-28T16:10:40.130Z,102327.38
2023-01-28T16:14:48.796Z,102324.84
2023-01-28T16:18:55.727Z,102324.03
2023-01-28T16:23:00.525Z,102317.75
2023-01-28T16:27:04.745Z,102314.19
2023-01-28T16:31:06.465Z,102319.59
2023-01-28T16:35:20.272Z,102303.75
2023-01-28T16:39:21.732Z,102297.81
2023-01-28T16:43:23.199Z,102307.69
2023-01-28T16:47:24.715Z,102315.19
2023-01-28T16:51:26.599Z,102313.00
2023-01-28T16:55:28.234Z,102326.56
2023-01-28T16:59:29.770Z,102324.31
2023-01-28T17:03:31.250Z,102324.72
2023-01-28T17:07:32.779Z,102339.44
2023-01-28T17:11:34.921Z,102342.06
2023-01-28T17:15:36.401Z,102358.47
2023-01-28T17:19:37.920Z,102353.88
2023-01-28T17:23:39.453Z,102365.88
2023-01-28T17:27:40.979Z,102363.16
2023-01-28T17:31:42.498Z,102375.84
2023-01-28T17:35:46.942Z,102383.81
2023-01-28T17:39:48.366Z,102380.88
2023-01-28T17:43:51.651Z,102386.53
2023-01-28T17:47:53.859Z,102383.44
2023-01-28T17:51:55.278Z,102373.00
2023-01-28T17:55:56.887Z,102380.03
2023-01-28T17:59:58.415Z,102362.97
2023-01-28T18:04:00.601Z,102348.81
2023-01-28T18:08:02.032Z,102371.66
2023-01-28T18:12:04.011Z,102369.97
2023-01-28T18:16:08.120Z,102376.88
2023-01-28T18:20:10.738Z,102381.84
2023-01-28T18:24:12.242Z,102371.06
2023-01-28T18:28:13.717Z,102367.66
2023-01-28T18:32:15.569Z,102368.59
2023-01-28T18:36:17.528Z,102349.03
2023-01-28T18:40:19.263Z,102362.16
2023-01-28T18:44:21.045Z,102370.53
2023-01-28T18:48:22.486Z,102363.44
2023-01-28T18:52:23.956Z,102370.38
2023-01-28T18:56:26.202Z,102367.47
2023-01-28T19:00:27.663Z,102369.13
2023-01-28T19:04:29.115Z,102375.91
2023-01-28T19:08:30.796Z,102384.03
2023-01-28T19:12:32.321Z,102359.66
2023-01-28T19:16:35.321Z,102356.41
2023-01-28T19:20:36.860Z,102364.50
2023-01-28T19:24:38.417Z,102362.69
2023-01-28T19:28:40.150Z,102362.44
2023-01-28T19:32:41.667Z,102373.69
2023-01-28T19:36:43.336Z,102356.81
2023-01-28T19:40:44.841Z,102347.81
2023-01-28T19:44:46.295Z,102362.59
2023-01-28T19:48:47.911Z,102353.03
2023-01-28T19:52:49.403Z,102353.53
2023-01-28T19:56:51.479Z,102349.63
2023-01-28T20:00:52.941Z,102366.31
2023-01-28T20:05:00.682Z,102368.50
2023-01-28T20:09:09.170Z,102377.69
2023-01-28T20:13:10.900Z,102388.84
2023-01-28T20:17:12.546Z,102395.06
2023-01-28T20:21:14.006Z,102392.75
2023-01-28T20:25:16.554Z,102389.63
2023-01-28T20:29:19.930Z,102378.22
2023-01-28T20:33:21.616Z,102379.53
2023-01-28T20:37:23.068Z,102371.75
2023-01-28T20:41:26.336Z,102365.63
2023-01-28T20:45:27.800Z,102367.63
2023-01-28T20:49:30.388Z,102367.63
2023-01-28T20:53:32.432Z,102372.94
2023-01-28T20:57:34.335Z,102368.25
2023-01-28T21:01:37.154Z,102361.56
2023-01-28T21:05:38.731Z,102357.72
2023-01-28T21:09:40.214Z,102369.06
2023-01-28T21:13:41.722Z,102364.00
2023-01-28T21:17:43.254Z,102361.03
2023-01-28T21:21:45.558Z,102361.91
2023-01-28T21:25:47.108Z,102351.69
2023-01-28T21:29:48.598Z,102342.63
2023-01-28T21:33:51.582Z,102347.34
2023-01-28T21:37:53.079Z,102356.69
2023-01-28T21:41:54.672Z,102354.69
2023-01-28T21:45:57.209Z,102347.97
2023-01-28T21:50:00.698Z,102347.81
2023-01-28T21:54:08.114Z,102351.75
2023-01-28T21:58:29.526Z,102353.63
2023-01-28T22:02:31.017Z,102343.69
2023-01-28T22:06:32.560Z,102342.91
2023-01-28T22:10:37.251Z,102332.03
2023-01-28T22:14:39.394Z,102337.47
2023-01-28T22:18:40.877Z,102336.97
2023-01-28T22:22:42.363Z,102329.91
2023-01-28T22:26:45.369Z,102328.94
2023-01-28T22:30:46.955Z,102328.13
2023-01-28T22:34:48.415Z,102334.63
2023-01-28T22:38:49.897Z,102317.84
2023-01-28T22:42:51.355Z,102320.44
2023-01-28T22:46:52.878Z,102323.41
2023-01-28T22:50:54.384Z,102323.50
2023-01-28T22:54:55.890Z,102319.84
2023-01-28T22:58:59.599Z,102316.78
2023-01-28T23:03:01.288Z,102308.72
2023-01-28T23:07:02.760Z,102312.66
2023-01-28T23:11:04.377Z,102309.91
2023-01-28T23:15:24.713Z,102297.28
2023-01-28T23:19:44.429Z,102292.75
2023-01-28T23:24:04.380Z,102290.41
2023-01-28T23:28:05.829Z,102295.22
2023-01-28T23:32:10.264Z,102290.28
2023-01-28T23:36:11.719Z,102288.00
2023-01-28T23:40:14.476Z,102267.06
2023-01-28T23:44:18.266Z,102260.50
2023-01-28T23:48:19.919Z,102266.88
2023-01-28T23:52:21.691Z,102261.31
2023-01-28T23:56:23.148Z,102266.84
